sensor_id;sensor_type;location;lat;lon;timestamp;temperature;humidity
1055;DHT22;516;51.482;7.120;2023-07-30T00:00:50;15.60;99.90
1055;DHT22;516;51.482;7.120;2023-07-30T00:06:37;15.40;99.90
1055;DHT22;516;51.482;7.120;2023-07-30T00:12:25;15.40;99.90
1055;DHT22;516;51.482;7.120;2023-07-30T00:18:13;15.30;99.90
1055;DHT22;516;51.482;7.120;2023-07-30T00:24:01;15.50;99.90
1055;DHT22;516;51.482;7.120;2023-07-30T00:29:51;15.20;99.90
1055;DHT22;516;51.482;7.120;2023-07-30T00:35:38;15.30;99.90
1055;DHT22;516;51.482;7.120;2023-07-30T00:41:27;15.10;99.90
1055;DHT22;516;51.482;7.120;2023-07-30T00:47:16;14.90;99.90
1055;DHT22;516;51.482;7.120;2023-07-30T00:53:04;14.60;99.90
1055;DHT22;516;51.482;7.120;2023-07-30T00:58:52;14.60;99.90
1055;DHT22;516;51.482;7.120;2023-07-30T01:04:40;14.40;99.90
1055;DHT22;516;51.482;7.120;2023-07-30T01:10:31;14.30;99.90
1055;DHT22;516;51.482;7.120;2023-07-30T01:16:19;14.30;99.90
1055;DHT22;516;51.482;7.120;2023-07-30T01:22:07;14.30;99.90
1055;DHT22;516;51.482;7.120;2023-07-30T01:27:55;14.30;99.90
1055;DHT22;516;51.482;7.120;2023-07-30T01:33:49;14.50;99.90
1055;DHT22;516;51.482;7.120;2023-07-30T01:39:40;14.20;99.90
1055;DHT22;516;51.482;7.120;2023-07-30T01:45:29;14.30;99.90
1055;DHT22;516;51.482;7.120;2023-07-30T01:51:17;14.10;99.90
1055;DHT22;516;51.482;7.120;2023-07-30T01:57:05;14.00;99.90
1055;DHT22;516;51.482;7.120;2023-07-30T02:02:52;13.80;99.90
1055;DHT22;516;51.482;7.120;2023-07-30T02:08:40;13.80;99.90
1055;DHT22;516;51.482;7.120;2023-07-30T02:14:27;13.90;99.90
1055;DHT22;516;51.482;7.120;2023-07-30T02:20:15;13.70;99.90
1055;DHT22;516;51.482;7.120;2023-07-30T02:26:03;13.80;99.90
1055;DHT22;516;51.482;7.120;2023-07-30T02:31:51;13.70;99.90
1055;DHT22;516;51.482;7.120;2023-07-30T02:47:41;13.70;99.90
1055;DHT22;516;51.482;7.120;2023-07-30T02:53:29;13.60;99.90
1055;DHT22;516;51.482;7.120;2023-07-30T02:59:17;13.60;99.90
1055;DHT22;516;51.482;7.120;2023-07-30T03:05:05;13.50;99.90
1055;DHT22;516;51.482;7.120;2023-07-30T03:10:52;13.30;99.90
1055;DHT22;516;51.482;7.120;2023-07-30T03:16:40;13.30;99.90
1055;DHT22;516;51.482;7.120;2023-07-30T03:22:28;13.30;99.90
1055;DHT22;516;51.482;7.120;2023-07-30T03:28:16;13.20;99.90
1055;DHT22;516;51.482;7.120;2023-07-30T03:34:04;13.40;99.90
1055;DHT22;516;51.482;7.120;2023-07-30T03:40:07;13.50;99.90
1055;DHT22;516;51.482;7.120;2023-07-30T03:45:54;13.40;99.90
1055;DHT22;516;51.482;7.120;2023-07-30T03:51:23;13.30;99.90
1055;DHT22;516;51.482;7.120;2023-07-30T03:57:10;13.20;99.90
1055;DHT22;516;51.482;7.120;2023-07-30T04:02:58;13.50;99.90
1055;DHT22;516;51.482;7.120;2023-07-30T04:08:45;13.30;99.90
1055;DHT22;516;51.482;7.120;2023-07-30T04:14:32;13.30;99.90
1055;DHT22;516;51.482;7.120;2023-07-30T04:20:20;13.70;99.90
1055;DHT22;516;51.482;7.120;2023-07-30T04:26:08;13.80;99.90
1055;DHT22;516;51.482;7.120;2023-07-30T04:31:55;13.90;99.90
1055;DHT22;516;51.482;7.120;2023-07-30T04:47:40;14.50;99.90
1055;DHT22;516;51.482;7.120;2023-07-30T04:53:28;14.70;99.90
1055;DHT22;516;51.482;7.120;2023-07-30T04:59:15;15.00;87.40
1055;DHT22;516;51.482;7.120;2023-07-30T05:05:03;15.10;59.90
1055;DHT22;516;51.482;7.120;2023-07-30T05:10:51;15.30;22.80
1055;DHT22;516;51.482;7.120;2023-07-30T05:16:39;15.50;1.00
1055;DHT22;516;51.482;7.120;2023-07-30T05:22:26;15.50;1.00
1055;DHT22;516;51.482;7.120;2023-07-30T05:28:14;15.60;1.00
1055;DHT22;516;51.482;7.120;2023-07-30T05:34:02;15.70;1.00
1055;DHT22;516;51.482;7.120;2023-07-30T05:39:49;15.70;1.00
1055;DHT22;516;51.482;7.120;2023-07-30T05:45:37;15.70;1.00
1055;DHT22;516;51.482;7.120;2023-07-30T05:51:25;15.90;1.00
1055;DHT22;516;51.482;7.120;2023-07-30T05:57:13;15.90;1.00
1055;DHT22;516;51.482;7.120;2023-07-30T06:03:01;15.90;1.00
1055;DHT22;516;51.482;7.120;2023-07-30T06:08:49;15.90;1.00
1055;DHT22;516;51.482;7.120;2023-07-30T06:14:36;15.90;1.00
1055;DHT22;516;51.482;7.120;2023-07-30T06:20:24;16.00;1.00
1055;DHT22;516;51.482;7.120;2023-07-30T06:26:12;15.90;1.00
1055;DHT22;516;51.482;7.120;2023-07-30T06:32:00;16.00;1.00
1055;DHT22;516;51.482;7.120;2023-07-30T06:47:38;15.80;1.00
1055;DHT22;516;51.482;7.120;2023-07-30T06:53:26;15.80;1.00
1055;DHT22;516;51.482;7.120;2023-07-30T06:59:14;15.80;1.00
1055;DHT22;516;51.482;7.120;2023-07-30T07:05:01;15.80;1.00
1055;DHT22;516;51.482;7.120;2023-07-30T07:10:49;15.90;1.00
1055;DHT22;516;51.482;7.120;2023-07-30T07:16:37;15.90;1.00
1055;DHT22;516;51.482;7.120;2023-07-30T07:22:25;15.90;1.00
1055;DHT22;516;51.482;7.120;2023-07-30T07:28:13;16.10;1.00
1055;DHT22;516;51.482;7.120;2023-07-30T07:34:00;16.20;1.00
1055;DHT22;516;51.482;7.120;2023-07-30T07:39:49;16.30;1.00
1055;DHT22;516;51.482;7.120;2023-07-30T07:45:37;16.30;1.00
1055;DHT22;516;51.482;7.120;2023-07-30T07:51:25;16.70;1.00
1055;DHT22;516;51.482;7.120;2023-07-30T07:57:12;17.10;1.00
1055;DHT22;516;51.482;7.120;2023-07-30T08:03:00;17.50;1.00
1055;DHT22;516;51.482;7.120;2023-07-30T08:08:51;17.40;1.00
1055;DHT22;516;51.482;7.120;2023-07-30T08:14:39;17.30;1.00
1055;DHT22;516;51.482;7.120;2023-07-30T08:20:27;17.10;1.00
1055;DHT22;516;51.482;7.120;2023-07-30T08:26:15;17.40;1.00
1055;DHT22;516;51.482;7.120;2023-07-30T08:32:03;18.10;1.00
1055;DHT22;516;51.482;7.120;2023-07-30T08:47:40;18.40;1.00
1055;DHT22;516;51.482;7.120;2023-07-30T08:53:29;18.80;1.00
1055;DHT22;516;51.482;7.120;2023-07-30T08:59:18;19.60;1.00
1055;DHT22;516;51.482;7.120;2023-07-30T09:05:07;19.50;1.00
1055;DHT22;516;51.482;7.120;2023-07-30T09:10:54;18.70;1.00
1055;DHT22;516;51.482;7.120;2023-07-30T09:16:43;18.80;1.00
1055;DHT22;516;51.482;7.120;2023-07-30T09:22:32;19.70;1.00
1055;DHT22;516;51.482;7.120;2023-07-30T09:28:21;19.30;1.00
1055;DHT22;516;51.482;7.120;2023-07-30T09:34:08;19.40;1.00
1055;DHT22;516;51.482;7.120;2023-07-30T09:39:49;20.20;1.00
1055;DHT22;516;51.482;7.120;2023-07-30T09:45:37;20.10;1.00
1055;DHT22;516;51.482;7.120;2023-07-30T09:51:25;20.90;1.00
1055;DHT22;516;51.482;7.120;2023-07-30T09:57:13;21.80;1.00
1055;DHT22;516;51.482;7.120;2023-07-30T10:03:01;21.50;1.00
1055;DHT22;516;51.482;7.120;2023-07-30T10:08:51;22.10;1.00
1055;DHT22;516;51.482;7.120;2023-07-30T10:14:40;21.30;1.00
1055;DHT22;516;51.482;7.120;2023-07-30T10:20:29;21.20;1.00
1055;DHT22;516;51.482;7.120;2023-07-30T10:42:07;21.90;1.00
1055;DHT22;516;51.482;7.120;2023-07-30T10:54:33;20.00;1.00
1055;DHT22;516;51.482;7.120;2023-07-30T11:00:22;20.20;1.00
1055;DHT22;516;51.482;7.120;2023-07-30T11:06:10;21.20;1.00
1055;DHT22;516;51.482;7.120;2023-07-30T11:11:57;21.30;1.00
1055;DHT22;516;51.482;7.120;2023-07-30T11:17:45;22.00;1.00
1055;DHT22;516;51.482;7.120;2023-07-30T11:23:34;21.20;1.00
1055;DHT22;516;51.482;7.120;2023-07-30T11:29:22;21.20;1.00
1055;DHT22;516;51.482;7.120;2023-07-30T11:35:14;21.50;1.00
1055;DHT22;516;51.482;7.120;2023-07-30T11:44:34;21.00;1.00
1055;DHT22;516;51.482;7.120;2023-07-30T11:50:22;21.10;1.00
1055;DHT22;516;51.482;7.120;2023-07-30T12:02:07;22.30;1.00
1055;DHT22;516;51.482;7.120;2023-07-30T12:07:54;22.40;1.00
1055;DHT22;516;51.482;7.120;2023-07-30T12:13:44;22.90;1.00
1055;DHT22;516;51.482;7.120;2023-07-30T12:19:34;22.30;1.00
1055;DHT22;516;51.482;7.120;2023-07-30T12:25:24;22.40;1.00
1055;DHT22;516;51.482;7.120;2023-07-30T12:31:12;23.70;1.00
1055;DHT22;516;51.482;7.120;2023-07-30T12:36:59;22.30;1.00
1055;DHT22;516;51.482;7.120;2023-07-30T12:39:55;23.20;1.00
1055;DHT22;516;51.482;7.120;2023-07-30T12:42:20;22.80;1.00
1055;DHT22;516;51.482;7.120;2023-07-30T12:48:08;23.40;1.00
1055;DHT22;516;51.482;7.120;2023-07-30T12:53:56;22.10;1.00
1055;DHT22;516;51.482;7.120;2023-07-30T12:59:43;23.10;1.00
1055;DHT22;516;51.482;7.120;2023-07-30T13:05:31;21.90;1.00
1055;DHT22;516;51.482;7.120;2023-07-30T13:11:19;21.70;1.00
1055;DHT22;516;51.482;7.120;2023-07-30T13:17:06;21.50;1.00
1055;DHT22;516;51.482;7.120;2023-07-30T13:22:54;21.60;1.00
1055;DHT22;516;51.482;7.120;2023-07-30T13:28:41;21.90;1.00
1055;DHT22;516;51.482;7.120;2023-07-30T13:34:29;22.20;1.00
1055;DHT22;516;51.482;7.120;2023-07-30T13:50:13;22.50;1.00
1055;DHT22;516;51.482;7.120;2023-07-30T13:56:01;22.80;1.00
1055;DHT22;516;51.482;7.120;2023-07-30T14:01:49;22.20;1.00
1055;DHT22;516;51.482;7.120;2023-07-30T14:07:37;22.20;1.00
1055;DHT22;516;51.482;7.120;2023-07-30T14:13:24;21.90;1.00
1055;DHT22;516;51.482;7.120;2023-07-30T14:19:12;22.00;1.00
1055;DHT22;516;51.482;7.120;2023-07-30T14:25:00;21.30;1.00
1055;DHT22;516;51.482;7.120;2023-07-30T14:30:47;20.90;1.00
1055;DHT22;516;51.482;7.120;2023-07-30T14:36:35;20.70;1.00
1055;DHT22;516;51.482;7.120;2023-07-30T14:42:20;21.00;1.00
1055;DHT22;516;51.482;7.120;2023-07-30T14:48:09;21.40;1.00
1055;DHT22;516;51.482;7.120;2023-07-30T14:53:57;22.60;1.00
1055;DHT22;516;51.482;7.120;2023-07-30T14:59:45;22.00;1.00
1055;DHT22;516;51.482;7.120;2023-07-30T15:05:33;21.70;1.00
1055;DHT22;516;51.482;7.120;2023-07-30T15:11:21;21.20;1.00
1055;DHT22;516;51.482;7.120;2023-07-30T15:17:08;21.00;1.00
1055;DHT22;516;51.482;7.120;2023-07-30T15:22:56;20.70;1.00
1055;DHT22;516;51.482;7.120;2023-07-30T15:28:44;21.00;1.00
1055;DHT22;516;51.482;7.120;2023-07-30T15:34:31;21.90;1.00
1055;DHT22;516;51.482;7.120;2023-07-30T15:47:12;21.60;1.00
1055;DHT22;516;51.482;7.120;2023-07-30T15:49:38;21.60;1.00
1055;DHT22;516;51.482;7.120;2023-07-30T15:55:26;21.50;1.00
1055;DHT22;516;51.482;7.120;2023-07-30T16:01:14;21.90;1.00
1055;DHT22;516;51.482;7.120;2023-07-30T16:07:02;21.50;1.00
1055;DHT22;516;51.482;7.120;2023-07-30T16:12:50;21.50;1.00
1055;DHT22;516;51.482;7.120;2023-07-30T16:18:39;21.50;1.00
1055;DHT22;516;51.482;7.120;2023-07-30T16:24:29;21.70;1.00
1055;DHT22;516;51.482;7.120;2023-07-30T16:30:16;22.10;1.00
1055;DHT22;516;51.482;7.120;2023-07-30T16:36:04;21.80;1.00
1055;DHT22;516;51.482;7.120;2023-07-30T16:41:54;21.80;1.00
1055;DHT22;516;51.482;7.120;2023-07-30T16:47:41;21.80;1.00
1055;DHT22;516;51.482;7.120;2023-07-30T16:53:29;21.70;1.00
1055;DHT22;516;51.482;7.120;2023-07-30T16:59:16;21.70;1.00
1055;DHT22;516;51.482;7.120;2023-07-30T17:05:05;21.70;1.00
1055;DHT22;516;51.482;7.120;2023-07-30T17:10:53;21.60;1.00
1055;DHT22;516;51.482;7.120;2023-07-30T17:16:42;21.60;1.00
1055;DHT22;516;51.482;7.120;2023-07-30T17:22:30;21.50;1.00
1055;DHT22;516;51.482;7.120;2023-07-30T17:28:18;21.50;1.00
1055;DHT22;516;51.482;7.120;2023-07-30T17:34:06;21.50;1.00
1055;DHT22;516;51.482;7.120;2023-07-30T17:39:54;21.50;1.00
1055;DHT22;516;51.482;7.120;2023-07-30T17:45:41;21.50;1.00
1055;DHT22;516;51.482;7.120;2023-07-30T17:51:29;21.30;1.00
1055;DHT22;516;51.482;7.120;2023-07-30T17:57:17;21.30;1.00
1055;DHT22;516;51.482;7.120;2023-07-30T18:03:05;21.20;1.00
1055;DHT22;516;51.482;7.120;2023-07-30T18:08:55;21.00;1.00
1055;DHT22;516;51.482;7.120;2023-07-30T18:14:43;20.90;1.00
1055;DHT22;516;51.482;7.120;2023-07-30T18:20:31;20.60;1.00
1055;DHT22;516;51.482;7.120;2023-07-30T18:26:19;20.40;1.00
1055;DHT22;516;51.482;7.120;2023-07-30T18:32:08;20.10;1.00
1055;DHT22;516;51.482;7.120;2023-07-30T18:37:56;19.40;1.00
1055;DHT22;516;51.482;7.120;2023-07-30T18:47:09;17.80;1.00
1055;DHT22;516;51.482;7.120;2023-07-30T18:52:57;16.70;1.00
1055;DHT22;516;51.482;7.120;2023-07-30T18:58:44;16.50;1.00
1055;DHT22;516;51.482;7.120;2023-07-30T19:04:32;16.20;1.00
1055;DHT22;516;51.482;7.120;2023-07-30T19:10:20;16.20;9.80
1055;DHT22;516;51.482;7.120;2023-07-30T19:16:08;16.10;23.50
1055;DHT22;516;51.482;7.120;2023-07-30T19:21:56;16.00;69.70
1055;DHT22;516;51.482;7.120;2023-07-30T19:27:43;15.90;99.90
1055;DHT22;516;51.482;7.120;2023-07-30T19:33:31;15.90;99.90
1055;DHT22;516;51.482;7.120;2023-07-30T19:39:19;15.90;99.90
1055;DHT22;516;51.482;7.120;2023-07-30T19:45:23;15.80;99.90
1055;DHT22;516;51.482;7.120;2023-07-30T19:51:10;15.80;99.90
1055;DHT22;516;51.482;7.120;2023-07-30T19:56:58;15.90;99.90
1055;DHT22;516;51.482;7.120;2023-07-30T20:02:45;16.00;99.90
1055;DHT22;516;51.482;7.120;2023-07-30T20:08:34;15.90;99.90
1055;DHT22;516;51.482;7.120;2023-07-30T20:14:22;15.80;99.90
1055;DHT22;516;51.482;7.120;2023-07-30T20:20:10;15.70;99.90
1055;DHT22;516;51.482;7.120;2023-07-30T20:25:57;15.70;99.90
1055;DHT22;516;51.482;7.120;2023-07-30T20:31:45;15.60;99.90
1055;DHT22;516;51.482;7.120;2023-07-30T20:37:33;15.40;99.90
1055;DHT22;516;51.482;7.120;2023-07-30T20:47:09;15.20;99.90
1055;DHT22;516;51.482;7.120;2023-07-30T20:52:56;15.20;99.90
1055;DHT22;516;51.482;7.120;2023-07-30T20:58:44;15.20;99.90
1055;DHT22;516;51.482;7.120;2023-07-30T21:04:31;15.20;99.90
1055;DHT22;516;51.482;7.120;2023-07-30T21:10:19;15.20;99.90
1055;DHT22;516;51.482;7.120;2023-07-30T21:16:07;15.20;99.90
1055;DHT22;516;51.482;7.120;2023-07-30T21:21:55;15.30;99.90
1055;DHT22;516;51.482;7.120;2023-07-30T21:27:46;15.30;99.90
1055;DHT22;516;51.482;7.120;2023-07-30T21:33:35;15.40;99.90
1055;DHT22;516;51.482;7.120;2023-07-30T21:39:23;15.40;99.90
1055;DHT22;516;51.482;7.120;2023-07-30T21:45:06;15.40;99.90
1055;DHT22;516;51.482;7.120;2023-07-30T21:51:03;15.40;99.90
1055;DHT22;516;51.482;7.120;2023-07-30T21:56:51;15.40;99.90
1055;DHT22;516;51.482;7.120;2023-07-30T22:02:39;15.40;99.90
1055;DHT22;516;51.482;7.120;2023-07-30T22:08:27;15.40;99.90
1055;DHT22;516;51.482;7.120;2023-07-30T22:14:14;15.40;99.90
1055;DHT22;516;51.482;7.120;2023-07-30T22:20:02;15.40;99.90
1055;DHT22;516;51.482;7.120;2023-07-30T22:25:53;15.50;99.90
1055;DHT22;516;51.482;7.120;2023-07-30T22:31:41;15.50;99.90
1055;DHT22;516;51.482;7.120;2023-07-30T22:37:29;15.50;99.90
1055;DHT22;516;51.482;7.120;2023-07-30T22:47:09;15.60;99.90
1055;DHT22;516;51.482;7.120;2023-07-30T22:52:57;15.60;99.90
1055;DHT22;516;51.482;7.120;2023-07-30T22:58:46;15.60;99.90
1055;DHT22;516;51.482;7.120;2023-07-30T23:04:33;15.50;99.90
1055;DHT22;516;51.482;7.120;2023-07-30T23:10:21;15.60;99.90
1055;DHT22;516;51.482;7.120;2023-07-30T23:16:09;15.50;99.90
1055;DHT22;516;51.482;7.120;2023-07-30T23:21:57;15.50;99.90
1055;DHT22;516;51.482;7.120;2023-07-30T23:27:47;15.60;99.90
1055;DHT22;516;51.482;7.120;2023-07-30T23:33:35;16.50;99.90
1055;DHT22;516;51.482;7.120;2023-07-30T23:39:23;16.60;99.90
1055;DHT22;516;51.482;7.120;2023-07-30T23:45:06;16.60;99.90
1055;DHT22;516;51.482;7.120;2023-07-30T23:50:54;16.60;99.90
1055;DHT22;516;51.482;7.120;2023-07-30T23:56:41;16.60;99.90
